sensor_id;sensor_type;location;lat;lon;timestamp;P1;durP1;ratioP1;P2;durP2;ratioP2
13785;SDS011;47474;48.824;9.384;2023-01-28T00:01:12;5.07;;;4.57;;
13785;SDS011;47474;48.824;9.384;2023-01-28T00:03:40;9.10;;;4.60;;
13785;SDS011;47474;48.824;9.384;2023-01-28T00:06:08;7.63;;;4.90;;
13785;SDS011;47474;48.824;9.384;2023-01-28T00:08:36;6.57;;;5.13;;
13785;SDS011;47474;48.824;9.384;2023-01-28T00:11:05;8.33;;;4.93;;
13785;SDS011;47474;48.824;9.384;2023-01-28T00:13:32;9.10;;;5.67;;
13785;SDS011;47474;48.824;9.384;2023-01-28T00:16:00;6.70;;;4.73;;
13785;SDS011;47474;48.824;9.384;2023-01-28T00:18:29;8.73;;;6.47;;
13785;SDS011;47474;48.824;9.384;2023-01-28T00:20:56;8.87;;;4.97;;
13785;SDS011;47474;48.824;9.384;2023-01-28T00:23:23;7.97;;;5.37;;
13785;SDS011;47474;48.824;9.384;2023-01-28T00:25:51;6.83;;;4.87;;
13785;SDS011;47474;48.824;9.384;2023-01-28T00:28:19;8.93;;;5.43;;
13785;SDS011;47474;48.824;9.384;2023-01-28T00:30:46;5.50;;;4.93;;
13785;SDS011;47474;48.824;9.384;2023-01-28T00:33:12;8.43;;;4.97;;
13785;SDS011;47474;48.824;9.384;2023-01-28T00:35:39;5.77;;;4.83;;
13785;SDS011;47474;48.824;9.384;2023-01-28T00:38:06;6.93;;;5.17;;
13785;SDS011;47474;48.824;9.384;2023-01-28T00:40:33;6.30;;;4.93;;
13785;SDS011;47474;48.824;9.384;2023-01-28T00:42:59;8.77;;;5.27;;
13785;SDS011;47474;48.824;9.384;2023-01-28T00:45:27;8.27;;;5.70;;
13785;SDS011;47474;48.824;9.384;2023-01-28T00:47:54;7.17;;;4.93;;
13785;SDS011;47474;48.824;9.384;2023-01-28T00:50:20;7.43;;;5.07;;
13785;SDS011;47474;48.824;9.384;2023-01-28T00:52:47;6.43;;;5.17;;
13785;SDS011;47474;48.824;9.384;2023-01-28T00:55:14;6.87;;;4.63;;
13785;SDS011;47474;48.824;9.384;2023-01-28T00:57:41;7.70;;;5.30;;
13785;SDS011;47474;48.824;9.384;2023-01-28T01:00:08;7.50;;;5.07;;
13785;SDS011;47474;48.824;9.384;2023-01-28T01:02:37;7.73;;;5.30;;
13785;SDS011;47474;48.824;9.384;2023-01-28T01:05:04;10.23;;;5.80;;
13785;SDS011;47474;48.824;9.384;2023-01-28T01:07:31;6.87;;;5.10;;
13785;SDS011;47474;48.824;9.384;2023-01-28T01:10:06;6.13;;;4.63;;
13785;SDS011;47474;48.824;9.384;2023-01-28T01:12:33;7.90;;;5.50;;
13785;SDS011;47474;48.824;9.384;2023-01-28T01:15:00;7.63;;;5.57;;
13785;SDS011;47474;48.824;9.384;2023-01-28T01:17:28;6.20;;;4.97;;
13785;SDS011;47474;48.824;9.384;2023-01-28T01:19:56;6.83;;;4.70;;
13785;SDS011;47474;48.824;9.384;2023-01-28T01:22:23;5.87;;;5.10;;
13785;SDS011;47474;48.824;9.384;2023-01-28T01:24:49;6.07;;;4.73;;
13785;SDS011;47474;48.824;9.384;2023-01-28T01:27:16;5.77;;;4.50;;
13785;SDS011;47474;48.824;9.384;2023-01-28T01:29:43;6.50;;;4.87;;
13785;SDS011;47474;48.824;9.384;2023-01-28T01:32:09;6.97;;;5.10;;
13785;SDS011;47474;48.824;9.384;2023-01-28T01:34:36;6.27;;;4.47;;
13785;SDS011;47474;48.824;9.384;2023-01-28T01:37:04;12.07;;;7.00;;
13785;SDS011;47474;48.824;9.384;2023-01-28T01:39:32;7.30;;;4.97;;
13785;SDS011;47474;48.824;9.384;2023-01-28T01:41:59;7.40;;;5.43;;
13785;SDS011;47474;48.824;9.384;2023-01-28T01:47:25;8.70;;;5.90;;
13785;SDS011;47474;48.824;9.384;2023-01-28T01:49:55;6.80;;;5.13;;
13785;SDS011;47474;48.824;9.384;2023-01-28T01:52:25;7.43;;;4.80;;
13785;SDS011;47474;48.824;9.384;2023-01-28T01:54:55;5.23;;;4.30;;
13785;SDS011;47474;48.824;9.384;2023-01-28T01:57:25;5.87;;;4.43;;
13785;SDS011;47474;48.824;9.384;2023-01-28T01:59:54;5.90;;;4.47;;
13785;SDS011;47474;48.824;9.384;2023-01-28T02:02:28;7.00;;;5.40;;
13785;SDS011;47474;48.824;9.384;2023-01-28T02:04:55;5.50;;;4.27;;
13785;SDS011;47474;48.824;9.384;2023-01-28T02:07:23;4.93;;;4.37;;
13785;SDS011;47474;48.824;9.384;2023-01-28T02:09:49;8.33;;;5.03;;
13785;SDS011;47474;48.824;9.384;2023-01-28T02:12:17;5.33;;;4.17;;
13785;SDS011;47474;48.824;9.384;2023-01-28T02:14:46;5.30;;;3.93;;
13785;SDS011;47474;48.824;9.384;2023-01-28T02:17:14;5.37;;;4.03;;
13785;SDS011;47474;48.824;9.384;2023-01-28T02:19:41;6.53;;;4.87;;
13785;SDS011;47474;48.824;9.384;2023-01-28T02:22:18;7.23;;;5.00;;
13785;SDS011;47474;48.824;9.384;2023-01-28T02:24:58;5.53;;;3.97;;
13785;SDS011;47474;48.824;9.384;2023-01-28T02:27:35;5.43;;;4.10;;
13785;SDS011;47474;48.824;9.384;2023-01-28T02:30:14;6.37;;;4.27;;
13785;SDS011;47474;48.824;9.384;2023-01-28T02:32:45;4.53;;;4.03;;
13785;SDS011;47474;48.824;9.384;2023-01-28T02:35:17;6.13;;;4.40;;
13785;SDS011;47474;48.824;9.384;2023-01-28T02:37:49;5.80;;;4.40;;
13785;SDS011;47474;48.824;9.384;2023-01-28T02:40:20;5.97;;;4.43;;
13785;SDS011;47474;48.824;9.384;2023-01-28T02:42:49;5.10;;;4.60;;
13785;SDS011;47474;48.824;9.384;2023-01-28T02:45:17;6.37;;;5.10;;
13785;SDS011;47474;48.824;9.384;2023-01-28T02:47:46;6.73;;;5.17;;
13785;SDS011;47474;48.824;9.384;2023-01-28T02:50:25;7.27;;;5.10;;
13785;SDS011;47474;48.824;9.384;2023-01-28T02:53:00;7.03;;;5.10;;
13785;SDS011;47474;48.824;9.384;2023-01-28T02:55:51;6.10;;;4.57;;
13785;SDS011;47474;48.824;9.384;2023-01-28T02:58:23;6.90;;;5.23;;
13785;SDS011;47474;48.824;9.384;2023-01-28T03:00:52;5.90;;;5.03;;
13785;SDS011;47474;48.824;9.384;2023-01-28T03:03:24;6.13;;;5.07;;
13785;SDS011;47474;48.824;9.384;2023-01-28T03:05:54;8.30;;;5.40;;
13785;SDS011;47474;48.824;9.384;2023-01-28T03:08:32;7.37;;;5.13;;
13785;SDS011;47474;48.824;9.384;2023-01-28T03:11:18;6.93;;;5.27;;
13785;SDS011;47474;48.824;9.384;2023-01-28T03:14:04;7.77;;;5.53;;
13785;SDS011;47474;48.824;9.384;2023-01-28T03:16:49;7.13;;;5.33;;
13785;SDS011;47474;48.824;9.384;2023-01-28T03:19:34;6.67;;;4.70;;
13785;SDS011;47474;48.824;9.384;2023-01-28T03:22:19;6.27;;;5.40;;
13785;SDS011;47474;48.824;9.384;2023-01-28T03:25:03;6.87;;;5.37;;
13785;SDS011;47474;48.824;9.384;2023-01-28T03:27:49;7.00;;;5.47;;
13785;SDS011;47474;48.824;9.384;2023-01-28T03:30:39;6.33;;;4.83;;
13785;SDS011;47474;48.824;9.384;2023-01-28T03:33:25;5.87;;;5.27;;
13785;SDS011;47474;48.824;9.384;2023-01-28T03:36:10;6.47;;;5.23;;
13785;SDS011;47474;48.824;9.384;2023-01-28T03:38:54;7.87;;;5.67;;
13785;SDS011;47474;48.824;9.384;2023-01-28T03:41:23;7.53;;;5.53;;
13785;SDS011;47474;48.824;9.384;2023-01-28T03:43:50;8.43;;;5.83;;
13785;SDS011;47474;48.824;9.384;2023-01-28T03:46:18;6.40;;;5.13;;
13785;SDS011;47474;48.824;9.384;2023-01-28T03:48:45;7.37;;;5.97;;
13785;SDS011;47474;48.824;9.384;2023-01-28T03:51:12;6.57;;;5.43;;
13785;SDS011;47474;48.824;9.384;2023-01-28T03:53:39;5.60;;;4.73;;
13785;SDS011;47474;48.824;9.384;2023-01-28T03:56:06;7.13;;;5.50;;
13785;SDS011;47474;48.824;9.384;2023-01-28T03:58:33;7.23;;;5.33;;
13785;SDS011;47474;48.824;9.384;2023-01-28T04:01:16;7.60;;;6.27;;
13785;SDS011;47474;48.824;9.384;2023-01-28T04:03:44;7.67;;;5.97;;
13785;SDS011;47474;48.824;9.384;2023-01-28T04:06:11;8.50;;;6.07;;
13785;SDS011;47474;48.824;9.384;2023-01-28T04:08:37;7.10;;;5.70;;
13785;SDS011;47474;48.824;9.384;2023-01-28T04:11:04;7.07;;;5.67;;
13785;SDS011;47474;48.824;9.384;2023-01-28T04:13:40;10.17;;;6.93;;
13785;SDS011;47474;48.824;9.384;2023-01-28T04:16:07;7.40;;;6.03;;
13785;SDS011;47474;48.824;9.384;2023-01-28T04:18:34;7.93;;;5.70;;
13785;SDS011;47474;48.824;9.384;2023-01-28T04:21:02;8.40;;;6.00;;
13785;SDS011;47474;48.824;9.384;2023-01-28T04:23:28;7.03;;;5.33;;
13785;SDS011;47474;48.824;9.384;2023-01-28T04:25:55;7.93;;;6.67;;
13785;SDS011;47474;48.824;9.384;2023-01-28T04:28:21;7.63;;;5.53;;
13785;SDS011;47474;48.824;9.384;2023-01-28T04:30:48;7.53;;;5.90;;
13785;SDS011;47474;48.824;9.384;2023-01-28T04:33:15;7.83;;;6.13;;
13785;SDS011;47474;48.824;9.384;2023-01-28T04:35:41;6.33;;;5.43;;
13785;SDS011;47474;48.824;9.384;2023-01-28T04:38:09;9.13;;;5.60;;
13785;SDS011;47474;48.824;9.384;2023-01-28T04:40:36;8.07;;;5.63;;
13785;SDS011;47474;48.824;9.384;2023-01-28T04:43:02;8.33;;;5.70;;
13785;SDS011;47474;48.824;9.384;2023-01-28T04:45:29;7.90;;;5.93;;
13785;SDS011;47474;48.824;9.384;2023-01-28T04:47:56;7.87;;;6.10;;
13785;SDS011;47474;48.824;9.384;2023-01-28T04:50:22;8.20;;;6.30;;
13785;SDS011;47474;48.824;9.384;2023-01-28T04:52:49;9.73;;;6.30;;
13785;SDS011;47474;48.824;9.384;2023-01-28T04:55:17;7.77;;;6.27;;
13785;SDS011;47474;48.824;9.384;2023-01-28T04:57:43;9.27;;;6.77;;
13785;SDS011;47474;48.824;9.384;2023-01-28T05:00:12;7.60;;;6.23;;
13785;SDS011;47474;48.824;9.384;2023-01-28T05:02:39;8.67;;;6.50;;
13785;SDS011;47474;48.824;9.384;2023-01-28T05:05:05;9.53;;;6.17;;
13785;SDS011;47474;48.824;9.384;2023-01-28T05:07:33;8.40;;;6.50;;
13785;SDS011;47474;48.824;9.384;2023-01-28T05:10:00;6.73;;;5.73;;
13785;SDS011;47474;48.824;9.384;2023-01-28T05:12:28;7.67;;;5.80;;
13785;SDS011;47474;48.824;9.384;2023-01-28T05:14:56;7.70;;;5.77;;
13785;SDS011;47474;48.824;9.384;2023-01-28T05:17:24;9.07;;;6.40;;
13785;SDS011;47474;48.824;9.384;2023-01-28T05:19:51;9.53;;;6.63;;
13785;SDS011;47474;48.824;9.384;2023-01-28T05:22:17;8.27;;;6.03;;
13785;SDS011;47474;48.824;9.384;2023-01-28T05:24:44;9.47;;;6.73;;
13785;SDS011;47474;48.824;9.384;2023-01-28T05:27:11;7.97;;;6.27;;
13785;SDS011;47474;48.824;9.384;2023-01-28T05:29:39;7.90;;;6.50;;
13785;SDS011;47474;48.824;9.384;2023-01-28T05:32:05;7.13;;;6.07;;
13785;SDS011;47474;48.824;9.384;2023-01-28T05:34:32;9.60;;;7.00;;
13785;SDS011;47474;48.824;9.384;2023-01-28T05:36:58;9.80;;;7.40;;
13785;SDS011;47474;48.824;9.384;2023-01-28T05:39:25;10.10;;;6.80;;
13785;SDS011;47474;48.824;9.384;2023-01-28T05:41:51;8.43;;;6.87;;
13785;SDS011;47474;48.824;9.384;2023-01-28T05:44:18;9.07;;;7.67;;
13785;SDS011;47474;48.824;9.384;2023-01-28T05:46:46;9.77;;;7.03;;
13785;SDS011;47474;48.824;9.384;2023-01-28T05:49:12;10.13;;;7.53;;
13785;SDS011;47474;48.824;9.384;2023-01-28T05:51:39;11.13;;;7.30;;
13785;SDS011;47474;48.824;9.384;2023-01-28T05:54:06;8.70;;;7.30;;
13785;SDS011;47474;48.824;9.384;2023-01-28T05:56:33;6.27;;;5.50;;
13785;SDS011;47474;48.824;9.384;2023-01-28T05:59:00;7.83;;;6.03;;
13785;SDS011;47474;48.824;9.384;2023-01-28T06:01:27;11.03;;;6.43;;
13785;SDS011;47474;48.824;9.384;2023-01-28T06:03:55;7.13;;;5.80;;
13785;SDS011;47474;48.824;9.384;2023-01-28T06:06:23;7.13;;;5.73;;
13785;SDS011;47474;48.824;9.384;2023-01-28T06:08:49;8.60;;;6.47;;
13785;SDS011;47474;48.824;9.384;2023-01-28T06:11:16;7.67;;;5.93;;
13785;SDS011;47474;48.824;9.384;2023-01-28T06:13:42;6.90;;;5.37;;
13785;SDS011;47474;48.824;9.384;2023-01-28T06:16:09;7.03;;;5.97;;
13785;SDS011;47474;48.824;9.384;2023-01-28T06:18:35;8.53;;;6.23;;
13785;SDS011;47474;48.824;9.384;2023-01-28T06:21:04;7.90;;;5.97;;
13785;SDS011;47474;48.824;9.384;2023-01-28T06:23:30;8.73;;;6.57;;
13785;SDS011;47474;48.824;9.384;2023-01-28T06:25:57;9.63;;;6.57;;
13785;SDS011;47474;48.824;9.384;2023-01-28T06:28:24;6.70;;;5.33;;
13785;SDS011;47474;48.824;9.384;2023-01-28T06:30:51;8.63;;;6.30;;
13785;SDS011;47474;48.824;9.384;2023-01-28T06:33:18;7.07;;;5.17;;
13785;SDS011;47474;48.824;9.384;2023-01-28T06:35:45;8.10;;;5.80;;
13785;SDS011;47474;48.824;9.384;2023-01-28T06:38:13;6.57;;;5.63;;
13785;SDS011;47474;48.824;9.384;2023-01-28T06:40:39;7.23;;;5.83;;
13785;SDS011;47474;48.824;9.384;2023-01-28T06:43:06;10.07;;;6.07;;
13785;SDS011;47474;48.824;9.384;2023-01-28T06:45:33;8.50;;;7.00;;
13785;SDS011;47474;48.824;9.384;2023-01-28T06:47:59;9.23;;;6.70;;
13785;SDS011;47474;48.824;9.384;2023-01-28T06:50:26;8.80;;;6.43;;
13785;SDS011;47474;48.824;9.384;2023-01-28T06:52:52;6.90;;;6.00;;
13785;SDS011;47474;48.824;9.384;2023-01-28T06:55:20;8.27;;;6.63;;
13785;SDS011;47474;48.824;9.384;2023-01-28T06:57:47;7.90;;;6.23;;
13785;SDS011;47474;48.824;9.384;2023-01-28T07:02:40;11.60;;;7.20;;
13785;SDS011;47474;48.824;9.384;2023-01-28T07:05:07;8.30;;;6.10;;
13785;SDS011;47474;48.824;9.384;2023-01-28T07:07:34;7.67;;;6.53;;
13785;SDS011;47474;48.824;9.384;2023-01-28T07:10:01;8.70;;;6.30;;
13785;SDS011;47474;48.824;9.384;2023-01-28T07:12:29;10.47;;;6.93;;
13785;SDS011;47474;48.824;9.384;2023-01-28T07:14:55;7.93;;;6.67;;
13785;SDS011;47474;48.824;9.384;2023-01-28T07:17:22;11.07;;;6.77;;
13785;SDS011;47474;48.824;9.384;2023-01-28T07:19:49;8.07;;;6.17;;
13785;SDS011;47474;48.824;9.384;2023-01-28T07:22:15;10.97;;;6.70;;
13785;SDS011;47474;48.824;9.384;2023-01-28T07:24:42;9.27;;;7.03;;
13785;SDS011;47474;48.824;9.384;2023-01-28T07:27:08;14.20;;;6.90;;
13785;SDS011;47474;48.824;9.384;2023-01-28T07:29:36;7.13;;;6.10;;
13785;SDS011;47474;48.824;9.384;2023-01-28T07:32:03;9.63;;;7.83;;
13785;SDS011;47474;48.824;9.384;2023-01-28T07:34:31;7.97;;;6.47;;
13785;SDS011;47474;48.824;9.384;2023-01-28T07:36:57;8.93;;;7.13;;
13785;SDS011;47474;48.824;9.384;2023-01-28T07:39:24;9.27;;;6.70;;
13785;SDS011;47474;48.824;9.384;2023-01-28T07:41:50;8.47;;;6.87;;
13785;SDS011;47474;48.824;9.384;2023-01-28T07:44:17;9.83;;;7.77;;
13785;SDS011;47474;48.824;9.384;2023-01-28T07:46:45;13.50;;;7.47;;
13785;SDS011;47474;48.824;9.384;2023-01-28T07:49:11;10.80;;;6.83;;
13785;SDS011;47474;48.824;9.384;2023-01-28T07:51:38;8.97;;;7.00;;
13785;SDS011;47474;48.824;9.384;2023-01-28T07:54:05;8.93;;;6.60;;
13785;SDS011;47474;48.824;9.384;2023-01-28T07:56:32;8.43;;;7.33;;
13785;SDS011;47474;48.824;9.384;2023-01-28T07:58:58;9.17;;;7.17;;
13785;SDS011;47474;48.824;9.384;2023-01-28T08:01:25;10.17;;;7.60;;
13785;SDS011;47474;48.824;9.384;2023-01-28T08:03:53;8.43;;;6.77;;
13785;SDS011;47474;48.824;9.384;2023-01-28T08:06:19;9.43;;;7.20;;
13785;SDS011;47474;48.824;9.384;2023-01-28T08:08:46;9.93;;;7.00;;
13785;SDS011;47474;48.824;9.384;2023-01-28T08:11:13;9.53;;;7.23;;
13785;SDS011;47474;48.824;9.384;2023-01-28T08:13:39;9.57;;;7.10;;
13785;SDS011;47474;48.824;9.384;2023-01-28T08:16:06;9.03;;;7.30;;
13785;SDS011;47474;48.824;9.384;2023-01-28T08:18:33;10.63;;;7.37;;
13785;SDS011;47474;48.824;9.384;2023-01-28T08:21:01;11.87;;;8.37;;
13785;SDS011;47474;48.824;9.384;2023-01-28T08:23:29;10.03;;;7.20;;
13785;SDS011;47474;48.824;9.384;2023-01-28T08:25:58;10.63;;;7.27;;
13785;SDS011;47474;48.824;9.384;2023-01-28T08:28:25;11.60;;;8.27;;
13785;SDS011;47474;48.824;9.384;2023-01-28T08:30:52;10.37;;;8.10;;
13785;SDS011;47474;48.824;9.384;2023-01-28T08:33:19;10.30;;;7.83;;
13785;SDS011;47474;48.824;9.384;2023-01-28T08:35:46;9.50;;;7.00;;
13785;SDS011;47474;48.824;9.384;2023-01-28T08:38:14;10.87;;;7.60;;
13785;SDS011;47474;48.824;9.384;2023-01-28T08:40:41;9.17;;;7.10;;
13785;SDS011;47474;48.824;9.384;2023-01-28T08:43:08;10.37;;;7.83;;
13785;SDS011;47474;48.824;9.384;2023-01-28T08:45:35;10.43;;;8.50;;
13785;SDS011;47474;48.824;9.384;2023-01-28T08:48:02;12.13;;;8.60;;
13785;SDS011;47474;48.824;9.384;2023-01-28T08:50:30;9.43;;;7.40;;
13785;SDS011;47474;48.824;9.384;2023-01-28T08:52:58;11.03;;;7.17;;
13785;SDS011;47474;48.824;9.384;2023-01-28T08:55:27;11.57;;;8.47;;
13785;SDS011;47474;48.824;9.384;2023-01-28T08:57:54;12.10;;;8.10;;
13785;SDS011;47474;48.824;9.384;2023-01-28T09:00:20;10.13;;;8.30;;
13785;SDS011;47474;48.824;9.384;2023-01-28T09:02:49;10.37;;;7.60;;
13785;SDS011;47474;48.824;9.384;2023-01-28T09:05:16;11.40;;;8.07;;
13785;SDS011;47474;48.824;9.384;2023-01-28T09:07:43;11.83;;;8.47;;
13785;SDS011;47474;48.824;9.384;2023-01-28T09:10:10;10.03;;;8.00;;
13785;SDS011;47474;48.824;9.384;2023-01-28T09:12:38;11.80;;;8.20;;
13785;SDS011;47474;48.824;9.384;2023-01-28T09:15:05;8.90;;;6.37;;
13785;SDS011;47474;48.824;9.384;2023-01-28T09:17:32;12.53;;;8.27;;
13785;SDS011;47474;48.824;9.384;2023-01-28T09:19:59;11.73;;;8.13;;
13785;SDS011;47474;48.824;9.384;2023-01-28T09:22:25;13.07;;;8.97;;
13785;SDS011;47474;48.824;9.384;2023-01-28T09:24:52;11.50;;;7.90;;
13785;SDS011;47474;48.824;9.384;2023-01-28T09:27:18;11.03;;;8.13;;
13785;SDS011;47474;48.824;9.384;2023-01-28T09:29:46;12.63;;;8.70;;
13785;SDS011;47474;48.824;9.384;2023-01-28T09:32:13;12.20;;;8.60;;
13785;SDS011;47474;48.824;9.384;2023-01-28T09:34:39;11.73;;;8.17;;
13785;SDS011;47474;48.824;9.384;2023-01-28T09:37:08;12.57;;;8.53;;
13785;SDS011;47474;48.824;9.384;2023-01-28T09:39:35;12.93;;;8.23;;
13785;SDS011;47474;48.824;9.384;2023-01-28T09:42:13;9.53;;;7.80;;
13785;SDS011;47474;48.824;9.384;2023-01-28T09:45:00;12.73;;;8.20;;
13785;SDS011;47474;48.824;9.384;2023-01-28T09:47:29;11.97;;;7.87;;
13785;SDS011;47474;48.824;9.384;2023-01-28T09:50:00;11.77;;;7.47;;
13785;SDS011;47474;48.824;9.384;2023-01-28T09:52:29;10.30;;;7.47;;
13785;SDS011;47474;48.824;9.384;2023-01-28T09:54:58;10.80;;;8.17;;
13785;SDS011;47474;48.824;9.384;2023-01-28T09:57:33;12.27;;;7.70;;
13785;SDS011;47474;48.824;9.384;2023-01-28T10:00:05;9.90;;;7.70;;
13785;SDS011;47474;48.824;9.384;2023-01-28T10:02:40;11.27;;;8.27;;
13785;SDS011;47474;48.824;9.384;2023-01-28T10:05:16;13.40;;;7.63;;
13785;SDS011;47474;48.824;9.384;2023-01-28T10:07:47;10.67;;;7.40;;
13785;SDS011;47474;48.824;9.384;2023-01-28T10:10:20;11.80;;;8.13;;
13785;SDS011;47474;48.824;9.384;2023-01-28T10:12:57;9.53;;;7.47;;
13785;SDS011;47474;48.824;9.384;2023-01-28T10:15:38;12.47;;;8.00;;
13785;SDS011;47474;48.824;9.384;2023-01-28T10:18:20;10.47;;;7.70;;
13785;SDS011;47474;48.824;9.384;2023-01-28T10:20:54;11.57;;;7.90;;
13785;SDS011;47474;48.824;9.384;2023-01-28T10:23:23;12.80;;;8.00;;
13785;SDS011;47474;48.824;9.384;2023-01-28T10:25:52;11.00;;;7.90;;
13785;SDS011;47474;48.824;9.384;2023-01-28T10:28:22;10.40;;;7.77;;
13785;SDS011;47474;48.824;9.384;2023-01-28T10:30:52;13.57;;;9.37;;
13785;SDS011;47474;48.824;9.384;2023-01-28T10:33:19;12.83;;;8.57;;
13785;SDS011;47474;48.824;9.384;2023-01-28T10:35:47;12.37;;;8.93;;
13785;SDS011;47474;48.824;9.384;2023-01-28T10:38:15;11.93;;;8.63;;
13785;SDS011;47474;48.824;9.384;2023-01-28T10:40:44;11.93;;;8.30;;
13785;SDS011;47474;48.824;9.384;2023-01-28T10:43:12;13.63;;;9.87;;
13785;SDS011;47474;48.824;9.384;2023-01-28T10:45:40;13.40;;;9.00;;
13785;SDS011;47474;48.824;9.384;2023-01-28T10:48:12;14.07;;;9.43;;
13785;SDS011;47474;48.824;9.384;2023-01-28T10:50:48;14.07;;;9.47;;
13785;SDS011;47474;48.824;9.384;2023-01-28T10:53:15;13.93;;;9.57;;
13785;SDS011;47474;48.824;9.384;2023-01-28T10:55:45;12.13;;;8.77;;
13785;SDS011;47474;48.824;9.384;2023-01-28T10:58:16;12.47;;;8.90;;
13785;SDS011;47474;48.824;9.384;2023-01-28T11:00:43;15.60;;;10.67;;
13785;SDS011;47474;48.824;9.384;2023-01-28T11:03:16;12.17;;;8.57;;
13785;SDS011;47474;48.824;9.384;2023-01-28T11:05:49;14.07;;;9.20;;
13785;SDS011;47474;48.824;9.384;2023-01-28T11:08:16;16.57;;;10.17;;
13785;SDS011;47474;48.824;9.384;2023-01-28T11:10:44;11.67;;;8.57;;
13785;SDS011;47474;48.824;9.384;2023-01-28T11:13:15;11.80;;;9.07;;
13785;SDS011;47474;48.824;9.384;2023-01-28T11:15:45;12.77;;;8.63;;
13785;SDS011;47474;48.824;9.384;2023-01-28T11:18:14;13.50;;;8.27;;
13785;SDS011;47474;48.824;9.384;2023-01-28T11:20:48;13.17;;;9.33;;
13785;SDS011;47474;48.824;9.384;2023-01-28T11:23:17;12.10;;;8.67;;
13785;SDS011;47474;48.824;9.384;2023-01-28T11:25:46;12.10;;;8.77;;
13785;SDS011;47474;48.824;9.384;2023-01-28T11:28:14;12.47;;;8.80;;
13785;SDS011;47474;48.824;9.384;2023-01-28T11:30:48;12.43;;;8.10;;
13785;SDS011;47474;48.824;9.384;2023-01-28T11:33:18;11.77;;;8.47;;
13785;SDS011;47474;48.824;9.384;2023-01-28T11:35:51;11.80;;;7.33;;
13785;SDS011;47474;48.824;9.384;2023-01-28T11:38:19;11.93;;;8.50;;
13785;SDS011;47474;48.824;9.384;2023-01-28T11:40:49;9.87;;;7.70;;
13785;SDS011;47474;48.824;9.384;2023-01-28T11:43:17;10.00;;;7.23;;
13785;SDS011;47474;48.824;9.384;2023-01-28T11:45:46;11.60;;;7.83;;
13785;SDS011;47474;48.824;9.384;2023-01-28T11:48:20;13.90;;;8.73;;
13785;SDS011;47474;48.824;9.384;2023-01-28T11:50:54;10.70;;;7.93;;
13785;SDS011;47474;48.824;9.384;2023-01-28T11:56:21;13.17;;;8.47;;
13785;SDS011;47474;48.824;9.384;2023-01-28T11:58:55;17.33;;;9.47;;
13785;SDS011;47474;48.824;9.384;2023-01-28T12:01:30;14.00;;;8.93;;
13785;SDS011;47474;48.824;9.384;2023-01-28T12:04:09;13.57;;;8.73;;
13785;SDS011;47474;48.824;9.384;2023-01-28T12:06:47;11.60;;;7.90;;
13785;SDS011;47474;48.824;9.384;2023-01-28T12:09:24;12.17;;;8.43;;
13785;SDS011;47474;48.824;9.384;2023-01-28T12:12:00;15.23;;;9.10;;
13785;SDS011;47474;48.824;9.384;2023-01-28T12:14:48;12.60;;;9.20;;
13785;SDS011;47474;48.824;9.384;2023-01-28T12:17:30;13.07;;;9.63;;
13785;SDS011;47474;48.824;9.384;2023-01-28T12:20:07;14.03;;;9.60;;
13785;SDS011;47474;48.824;9.384;2023-01-28T12:22:58;14.10;;;9.37;;
13785;SDS011;47474;48.824;9.384;2023-01-28T12:25:34;13.37;;;9.67;;
13785;SDS011;47474;48.824;9.384;2023-01-28T12:28:17;13.70;;;9.50;;
13785;SDS011;47474;48.824;9.384;2023-01-28T12:30:59;15.50;;;10.33;;
13785;SDS011;47474;48.824;9.384;2023-01-28T12:33:39;14.63;;;9.10;;
13785;SDS011;47474;48.824;9.384;2023-01-28T12:36:17;14.53;;;9.87;;
13785;SDS011;47474;48.824;9.384;2023-01-28T12:38:51;13.20;;;8.70;;
13785;SDS011;47474;48.824;9.384;2023-01-28T12:41:27;14.37;;;9.73;;
13785;SDS011;47474;48.824;9.384;2023-01-28T12:43:56;14.27;;;9.10;;
13785;SDS011;47474;48.824;9.384;2023-01-28T12:46:37;10.77;;;8.17;;
13785;SDS011;47474;48.824;9.384;2023-01-28T12:49:07;13.53;;;8.33;;
13785;SDS011;47474;48.824;9.384;2023-01-28T12:51:41;11.53;;;7.27;;
13785;SDS011;47474;48.824;9.384;2023-01-28T12:54:14;12.27;;;7.93;;
13785;SDS011;47474;48.824;9.384;2023-01-28T12:56:43;12.77;;;7.93;;
13785;SDS011;47474;48.824;9.384;2023-01-28T12:59:11;12.50;;;8.30;;
13785;SDS011;47474;48.824;9.384;2023-01-28T13:01:41;12.20;;;7.50;;
13785;SDS011;47474;48.824;9.384;2023-01-28T13:04:12;11.03;;;7.60;;
13785;SDS011;47474;48.824;9.384;2023-01-28T13:06:46;9.63;;;6.97;;
13785;SDS011;47474;48.824;9.384;2023-01-28T13:09:16;10.27;;;6.67;;
13785;SDS011;47474;48.824;9.384;2023-01-28T13:11:44;11.77;;;7.47;;
13785;SDS011;47474;48.824;9.384;2023-01-28T13:14:12;9.70;;;7.10;;
13785;SDS011;47474;48.824;9.384;2023-01-28T13:16:39;11.07;;;7.03;;
13785;SDS011;47474;48.824;9.384;2023-01-28T13:19:06;9.30;;;6.57;;
13785;SDS011;47474;48.824;9.384;2023-01-28T13:21:36;9.23;;;6.63;;
13785;SDS011;47474;48.824;9.384;2023-01-28T13:24:06;8.77;;;5.93;;
13785;SDS011;47474;48.824;9.384;2023-01-28T13:26:46;7.30;;;5.40;;
13785;SDS011;47474;48.824;9.384;2023-01-28T13:29:18;7.20;;;5.53;;
13785;SDS011;47474;48.824;9.384;2023-01-28T13:31:48;8.23;;;6.10;;
13785;SDS011;47474;48.824;9.384;2023-01-28T13:34:25;9.23;;;5.73;;
13785;SDS011;47474;48.824;9.384;2023-01-28T13:37:00;8.67;;;5.97;;
13785;SDS011;47474;48.824;9.384;2023-01-28T13:39:31;8.40;;;5.90;;
13785;SDS011;47474;48.824;9.384;2023-01-28T13:45:07;8.33;;;5.70;;
13785;SDS011;47474;48.824;9.384;2023-01-28T13:47:45;7.90;;;5.63;;
13785;SDS011;47474;48.824;9.384;2023-01-28T13:50:14;8.57;;;6.63;;
13785;SDS011;47474;48.824;9.384;2023-01-28T13:52:41;8.77;;;5.87;;
13785;SDS011;47474;48.824;9.384;2023-01-28T13:55:15;8.43;;;6.53;;
13785;SDS011;47474;48.824;9.384;2023-01-28T13:58:01;9.87;;;6.97;;
13785;SDS011;47474;48.824;9.384;2023-01-28T14:00:39;9.33;;;6.07;;
13785;SDS011;47474;48.824;9.384;2023-01-28T14:03:23;13.70;;;7.20;;
13785;SDS011;47474;48.824;9.384;2023-01-28T14:06:03;10.07;;;6.47;;
13785;SDS011;47474;48.824;9.384;2023-01-28T14:08:42;8.47;;;6.33;;
13785;SDS011;47474;48.824;9.384;2023-01-28T14:16:57;8.00;;;5.67;;
13785;SDS011;47474;48.824;9.384;2023-01-28T14:19:26;7.80;;;5.73;;
13785;SDS011;47474;48.824;9.384;2023-01-28T14:21:54;8.13;;;5.97;;
13785;SDS011;47474;48.824;9.384;2023-01-28T14:24:21;6.80;;;5.67;;
13785;SDS011;47474;48.824;9.384;2023-01-28T14:26:51;8.50;;;6.27;;
13785;SDS011;47474;48.824;9.384;2023-01-28T14:29:24;8.87;;;6.63;;
13785;SDS011;47474;48.824;9.384;2023-01-28T14:31:56;6.93;;;5.57;;
13785;SDS011;47474;48.824;9.384;2023-01-28T14:34:25;6.77;;;5.60;;
13785;SDS011;47474;48.824;9.384;2023-01-28T14:36:53;7.23;;;5.50;;
13785;SDS011;47474;48.824;9.384;2023-01-28T14:39:23;7.07;;;5.40;;
13785;SDS011;47474;48.824;9.384;2023-01-28T14:41:52;8.20;;;5.07;;
13785;SDS011;47474;48.824;9.384;2023-01-28T14:44:23;8.63;;;5.80;;
13785;SDS011;47474;48.824;9.384;2023-01-28T14:46:57;7.00;;;5.83;;
13785;SDS011;47474;48.824;9.384;2023-01-28T14:49:31;6.60;;;5.50;;
13785;SDS011;47474;48.824;9.384;2023-01-28T14:54:52;6.60;;;5.27;;
13785;SDS011;47474;48.824;9.384;2023-01-28T14:57:28;7.50;;;5.90;;
13785;SDS011;47474;48.824;9.384;2023-01-28T15:00:13;7.37;;;5.23;;
13785;SDS011;47474;48.824;9.384;2023-01-28T15:02:42;7.23;;;5.20;;
13785;SDS011;47474;48.824;9.384;2023-01-28T15:05:10;7.03;;;5.27;;
13785;SDS011;47474;48.824;9.384;2023-01-28T15:07:42;5.53;;;4.93;;
13785;SDS011;47474;48.824;9.384;2023-01-28T15:10:13;6.53;;;5.23;;
13785;SDS011;47474;48.824;9.384;2023-01-28T15:12:43;6.57;;;5.33;;
13785;SDS011;47474;48.824;9.384;2023-01-28T15:15:14;5.77;;;4.90;;
13785;SDS011;47474;48.824;9.384;2023-01-28T15:17:45;5.10;;;4.60;;
13785;SDS011;47474;48.824;9.384;2023-01-28T15:20:14;5.87;;;4.70;;